Time;durP1;ratioP1;P1;durP2;ratioP2;P2;SDS_P1;SDS_P2;PMS_P1;PMS_P2;Temp;Humidity;BMP_temperature;BMP_pressure;BME280_temperature;BME280_humidity;BME280_pressure;Samples;Min_cycle;Max_cycle;Signal;HPM_P1;HPM_P2
2021/03/22 00:02:06;;;;;;;21.25;11.43;;;;;;;-0.16;77.89;98040.34;5091484;28;20050;-76
2021/03/22 00:04:32;;;;;;;33.22;15.50;;;;;;;-0.19;77.75;98034.59;5093163;28;20035;-75
2021/03/22 00:06:57;;;;;;;31.83;15.75;;;;;;;-0.23;77.86;98036.94;5091334;28;20020;-76
2021/03/22 00:09:23;;;;;;;24.98;12.25;;;;;;;-0.25;78.06;98043.63;5087801;28;20085;-75
2021/03/22 00:11:49;;;;;;;20.92;11.70;;;;;;;-0.29;77.78;98040.59;5089059;28;20110;-76
2021/03/22 00:14:14;;;;;;;25.38;12.77;;;;;;;-0.36;77.74;98040.72;5092650;28;20035;-75
2021/03/22 00:16:40;;;;;;;22.83;11.60;;;;;;;-0.38;77.90;98041.97;5092594;28;20484;-75
2021/03/22 00:19:06;;;;;;;21.45;11.88;;;;;;;-0.43;77.64;98044.59;5089854;28;20023;-76
2021/03/22 00:21:32;;;;;;;26.05;12.52;;;;;;;-0.48;78.13;98043.41;5089742;28;20561;-76
2021/03/22 00:23:57;;;;;;;24.52;10.82;;;;;;;-0.52;78.27;98046.78;5090961;28;20059;-77
2021/03/22 00:26:22;;;;;;;17.33;9.60;;;;;;;-0.54;77.75;98049.75;5091029;28;20054;-76
2021/03/22 00:28:48;;;;;;;17.83;9.68;;;;;;;-0.58;78.04;98050.41;5089607;28;20027;-76
2021/03/22 00:31:15;;;;;;;17.25;9.07;;;;;;;-0.63;77.96;98054.66;5078128;28;20044;-75
2021/03/22 00:33:42;;;;;;;18.80;9.77;;;;;;;-0.66;77.94;98056.97;5085171;28;20091;-75
2021/03/22 00:36:08;;;;;;;17.38;9.30;;;;;;;-0.66;78.16;98060.50;5090619;28;20016;-75
2021/03/22 00:38:33;;;;;;;19.73;9.88;;;;;;;-0.66;78.12;98065.91;5089130;28;20380;-75
2021/03/22 00:40:59;;;;;;;18.42;10.40;;;;;;;-0.69;78.10;98066.38;5092161;28;20031;-75
2021/03/22 00:43:25;;;;;;;16.80;9.05;;;;;;;-0.73;78.01;98058.97;5090227;28;20099;-75
2021/03/22 00:45:53;;;;;;;15.32;8.50;;;;;;;-0.76;78.12;98060.25;5087303;28;20054;-76
2021/03/22 00:48:18;;;;;;;16.25;8.75;;;;;;;-0.82;77.82;98061.19;5091944;28;20024;-75
2021/03/22 00:50:44;;;;;;;15.52;9.13;;;;;;;-0.85;77.62;98067.88;5093083;28;20032;-75
2021/03/22 00:53:12;;;;;;;16.67;8.77;;;;;;;-0.84;78.50;98065.97;5092111;28;20020;-75
2021/03/22 00:55:38;;;;;;;16.45;9.40;;;;;;;-0.87;78.07;98067.28;5092986;28;20024;-75
2021/03/22 00:58:04;;;;;;;15.93;7.60;;;;;;;-0.90;78.11;98073.13;5091797;28;20046;-75
2021/03/22 01:00:31;;;;;;;17.77;8.32;;;;;;;-0.95;78.14;98065.72;5088096;28;20468;-75
2021/03/22 01:02:58;;;;;;;19.77;9.43;;;;;;;-0.97;77.97;98069.72;5090660;28;20044;-77
2021/03/22 01:05:25;;;;;;;18.63;8.50;;;;;;;-0.99;77.86;98071.81;5090334;28;20024;-77
2021/03/22 01:07:51;;;;;;;14.85;6.95;;;;;;;-1.00;78.56;98078.25;5087511;28;20024;-76
2021/03/22 01:10:34;;;;;;;19.55;9.02;;;;;;;-1.01;78.17;98079.28;5089273;28;20058;-74
2021/03/22 01:13:02;;;;;;;11.88;6.57;;;;;;;-1.06;78.18;98075.41;5086944;28;20101;-74
2021/03/22 01:15:27;;;;;;;14.68;8.30;;;;;;;-1.06;78.10;98071.91;5090773;28;20030;-75
2021/03/22 01:17:53;;;;;;;16.52;8.07;;;;;;;-1.08;78.45;98076.72;5089907;28;20028;-77
2021/03/22 01:20:47;;;;;;;16.13;8.43;;;;;;;-1.13;78.37;98074.69;5089648;28;20028;-75
2021/03/22 01:23:13;;;;;;;12.15;7.40;;;;;;;-1.15;78.36;98074.09;5087663;28;20109;-75
2021/03/22 01:25:40;;;;;;;18.42;9.18;;;;;;;-1.16;78.51;98069.75;5087980;28;20037;-76
2021/03/22 01:28:07;;;;;;;18.75;8.05;;;;;;;-1.13;78.45;98077.38;5089391;28;20032;-75
2021/03/22 01:30:47;;;;;;;13.23;7.25;;;;;;;-1.15;78.87;98078.66;5090946;28;20028;-75
2021/03/22 01:33:14;;;;;;;13.02;6.97;;;;;;;-1.20;78.72;98076.66;5085452;28;20031;-75
2021/03/22 01:35:40;;;;;;;15.38;7.00;;;;;;;-1.23;79.02;98079.81;5092246;28;20028;-74
2021/03/22 01:38:06;;;;;;;19.45;7.85;;;;;;;-1.29;78.76;98069.97;5091152;28;20024;-76
2021/03/22 01:40:53;;;;;;;16.35;8.10;;;;;;;-1.29;78.60;98067.28;5092470;28;20040;-75
2021/03/22 01:43:24;;;;;;;15.38;6.72;;;;;;;-1.28;78.43;98074.31;5093114;28;20380;-76
2021/03/22 01:45:49;;;;;;;15.15;7.10;;;;;;;-1.27;78.85;98074.06;5091478;28;20020;-76
2021/03/22 01:48:15;;;;;;;14.20;7.22;;;;;;;-1.28;78.49;98077.81;5094724;28;20418;-75
2021/03/22 01:50:40;;;;;;;13.70;7.20;;;;;;;-1.33;78.30;98074.97;5094988;28;20032;-75
2021/03/22 01:53:06;;;;;;;11.80;6.15;;;;;;;-1.35;78.62;98082.44;5092480;28;20024;-75
2021/03/22 01:55:31;;;;;;;14.63;7.10;;;;;;;-1.38;78.61;98072.13;5094408;28;20380;-76
2021/03/22 01:57:56;;;;;;;16.45;8.05;;;;;;;-1.39;78.38;98082.09;5090300;28;20127;-76
2021/03/22 02:00:28;;;;;;;15.27;7.57;;;;;;;-1.39;78.83;98086.63;5086106;28;20028;-75
2021/03/22 02:03:05;;;;;;;15.75;6.80;;;;;;;-1.41;78.60;98086.88;5095821;28;20040;-76
2021/03/22 02:05:31;;;;;;;17.25;8.10;;;;;;;-1.44;78.53;98083.84;5084002;28;20020;-76
2021/03/22 02:08:25;;;;;;;14.23;7.95;;;;;;;-1.48;78.24;98079.97;5092678;28;20601;-76
2021/03/22 02:10:51;;;;;;;16.50;8.05;;;;;;;-1.50;78.13;98081.00;5081345;28;20027;-76
2021/03/22 02:13:22;;;;;;;19.45;8.65;;;;;;;-1.52;77.97;98079.56;5094927;28;20763;-76
2021/03/22 02:15:48;;;;;;;17.13;8.15;;;;;;;-1.57;78.64;98076.75;5091891;28;20399;-76
2021/03/22 02:18:14;;;;;;;18.38;8.60;;;;;;;-1.58;78.30;98083.16;5092192;28;20054;-76
2021/03/22 02:21:07;;;;;;;17.70;7.68;;;;;;;-1.61;78.37;98084.44;5093407;28;20531;-76
2021/03/22 02:24:03;;;;;;;16.63;8.45;;;;;;;-1.60;78.39;98087.94;5090701;28;20032;-76
2021/03/22 02:26:43;;;;;;;17.75;9.13;;;;;;;-1.63;78.62;98089.22;5094075;28;20562;-76
2021/03/22 02:29:33;;;;;;;15.15;6.95;;;;;;;-1.62;78.26;98092.72;5092145;28;20028;-76
2021/03/22 02:32:35;;;;;;;20.73;8.77;;;;;;;-1.67;78.18;98102.31;5092209;28;20109;-76
2021/03/22 02:35:08;;;;;;;18.13;8.30;;;;;;;-1.69;78.33;98101.72;5091683;28;20099;-76
2021/03/22 02:37:39;;;;;;;16.25;8.10;;;;;;;-1.70;78.27;98107.31;5091339;28;20077;-75
2021/03/22 02:40:08;;;;;;;15.10;8.32;;;;;;;-1.71;78.23;98109.19;5094146;28;20472;-76
2021/03/22 02:42:37;;;;;;;14.10;8.02;;;;;;;-1.72;78.36;98109.41;5093194;28;20055;-76
2021/03/22 02:45:05;;;;;;;30.92;11.43;;;;;;;-1.73;78.38;98115.81;5093737;28;20655;-76
2021/03/22 02:47:33;;;;;;;29.50;12.02;;;;;;;-1.78;77.89;98124.56;5091787;28;20016;-77
2021/03/22 02:50:03;;;;;;;35.75;12.23;;;;;;;-1.77;78.04;98120.00;5091494;28;20020;-76
2021/03/22 02:53:00;;;;;;;24.42;10.82;;;;;;;-1.75;78.01;98132.19;5091744;28;20373;-77
2021/03/22 02:55:54;;;;;;;20.65;9.32;;;;;;;-1.77;77.99;98125.38;5091753;28;20024;-77
2021/03/22 02:58:25;;;;;;;16.88;9.20;;;;;;;-1.75;77.52;98131.34;5087876;28;20111;-76
2021/03/22 03:01:17;;;;;;;16.70;8.85;;;;;;;-1.77;78.03;98123.53;5091696;28;20047;-76
2021/03/22 03:03:46;;;;;;;14.38;7.82;;;;;;;-1.76;78.35;98127.03;5092478;28;20044;-76
2021/03/22 03:06:12;;;;;;;19.27;9.47;;;;;;;-1.80;78.01;98130.16;5093862;28;20089;-76
2021/03/22 03:08:39;;;;;;;18.42;9.15;;;;;;;-1.85;77.67;98130.03;5091969;28;20028;-76
2021/03/22 03:11:07;;;;;;;20.58;9.68;;;;;;;-1.87;77.88;98125.91;5092387;28;20019;-76
2021/03/22 03:13:32;;;;;;;16.90;9.13;;;;;;;-1.90;77.64;98129.03;5093013;28;20047;-76
2021/03/22 03:15:58;;;;;;;20.55;9.40;;;;;;;-1.92;78.10;98141.88;5090134;28;20429;-76
2021/03/22 03:18:24;;;;;;;20.73;9.40;;;;;;;-1.94;77.69;98150.19;5091482;28;20024;-75
2021/03/22 03:20:50;;;;;;;22.08;9.55;;;;;;;-1.96;77.59;98139.63;5092475;28;20115;-77
2021/03/22 03:23:16;;;;;;;18.58;8.70;;;;;;;-1.97;77.61;98142.56;5092391;28;20511;-76
2021/03/22 03:25:41;;;;;;;19.83;9.55;;;;;;;-2.00;77.49;98148.38;5093071;28;20024;-76
2021/03/22 03:28:08;;;;;;;22.35;10.25;;;;;;;-2.04;77.54;98145.31;5092546;28;20028;-76
2021/03/22 03:30:36;;;;;;;20.88;9.13;;;;;;;-2.03;77.47;98144.25;5093204;28;20016;-76
2021/03/22 03:33:03;;;;;;;25.73;10.00;;;;;;;-2.07;77.25;98144.94;5089452;28;20031;-75
2021/03/22 03:35:31;;;;;;;24.17;9.95;;;;;;;-2.15;77.09;98138.78;5093151;28;20031;-76
2021/03/22 03:37:57;;;;;;;22.05;10.05;;;;;;;-2.17;77.19;98146.25;5092150;28;20017;-76
2021/03/22 03:40:29;;;;;;;28.50;11.15;;;;;;;-2.22;77.67;98146.09;5093107;28;20020;-76
2021/03/22 03:42:55;;;;;;;28.42;11.02;;;;;;;-2.26;77.54;98150.28;5086875;28;20511;-75
2021/03/22 03:45:22;;;;;;;20.00;9.88;;;;;;;-2.27;78.12;98148.66;5092211;28;20020;-76
2021/03/22 03:47:48;;;;;;;19.70;10.38;;;;;;;-2.30;77.75;98152.56;5092793;28;20146;-76
2021/03/22 03:50:17;;;;;;;20.23;10.32;;;;;;;-2.29;77.70;98154.22;5089335;28;20495;-76
2021/03/22 03:52:43;;;;;;;21.95;11.02;;;;;;;-2.27;78.00;98154.81;5091691;28;20020;-76
2021/03/22 03:55:10;;;;;;;21.35;10.48;;;;;;;-2.27;77.75;98157.50;5092110;28;20479;-76
2021/03/22 03:57:36;;;;;;;22.33;11.25;;;;;;;-2.29;78.20;98162.28;5088979;28;20043;-77
2021/03/22 04:00:15;;;;;;;25.77;12.13;;;;;;;-2.28;78.36;98169.28;5092708;28;20114;-76
2021/03/22 04:02:41;;;;;;;25.73;11.35;;;;;;;-2.23;78.17;98167.81;5089431;28;20032;-76
2021/03/22 04:05:09;;;;;;;24.63;12.18;;;;;;;-2.24;78.20;98172.34;5090222;28;20082;-76
2021/03/22 04:07:34;;;;;;;23.73;12.57;;;;;;;-2.26;77.98;98180.66;5091850;28;20043;-76
2021/03/22 04:09:59;;;;;;;27.05;12.60;;;;;;;-2.22;78.40;98181.00;5092497;28;20012;-76
2021/03/22 04:12:25;;;;;;;22.77;12.52;;;;;;;-2.21;78.28;98181.84;5094276;28;20055;-76
2021/03/22 04:14:50;;;;;;;28.83;14.90;;;;;;;-2.23;77.81;98179.38;5092076;28;20036;-76
2021/03/22 04:17:16;;;;;;;25.38;13.82;;;;;;;-2.19;77.97;98183.25;5091923;28;20027;-76
2021/03/22 04:19:42;;;;;;;32.20;15.52;;;;;;;-2.19;78.25;98175.19;5090048;28;20020;-75
2021/03/22 04:22:08;;;;;;;30.77;15.85;;;;;;;-2.18;77.91;98187.59;5092017;28;20023;-76
2021/03/22 04:24:33;;;;;;;35.55;19.58;;;;;;;-2.21;77.67;98181.84;5088641;28;20031;-76
2021/03/22 04:26:58;;;;;;;31.83;16.52;;;;;;;-2.23;77.95;98192.00;5091673;28;20091;-76
2021/03/22 04:29:24;;;;;;;38.47;15.63;;;;;;;-2.26;77.77;98190.59;5091686;28;20020;-76
2021/03/22 04:31:49;;;;;;;44.83;16.30;;;;;;;-2.26;77.40;98193.28;5091857;28;20052;-76
2021/03/22 04:34:15;;;;;;;44.15;16.90;;;;;;;-2.26;77.74;98196.75;5091855;28;20480;-76
2021/03/22 04:36:40;;;;;;;43.88;18.02;;;;;;;-2.27;77.78;98200.50;5091162;28;20027;-75
2021/03/22 04:39:07;;;;;;;52.95;18.77;;;;;;;-2.29;77.58;98196.41;5091291;28;20028;-76
2021/03/22 04:41:33;;;;;;;43.05;17.45;;;;;;;-2.29;77.81;98197.19;5074656;28;20025;-76
2021/03/22 04:43:59;;;;;;;37.45;16.67;;;;;;;-2.26;77.74;98195.97;5090419;28;20067;-76
2021/03/22 04:46:24;;;;;;;32.15;15.48;;;;;;;-2.22;78.06;98199.81;5082355;28;20035;-76
2021/03/22 04:48:49;;;;;;;33.72;14.43;;;;;;;-2.16;77.74;98200.81;5085285;28;20032;-76
2021/03/22 04:51:15;;;;;;;37.05;15.23;;;;;;;-2.14;77.61;98202.25;5092228;28;20028;-76
2021/03/22 04:53:40;;;;;;;31.58;13.73;;;;;;;-2.11;77.36;98198.31;5080173;28;20032;-76
2021/03/22 04:56:08;;;;;;;35.17;16.13;;;;;;;-2.08;77.76;98197.03;5079835;28;20032;-76
2021/03/22 04:58:37;;;;;;;36.15;15.55;;;;;;;-2.04;77.50;98209.81;5092266;28;20022;-76
2021/03/22 05:01:04;;;;;;;31.87;15.70;;;;;;;-2.02;77.68;98209.59;5088805;28;20024;-76
2021/03/22 05:03:30;;;;;;;31.40;15.07;;;;;;;-2.02;77.43;98201.53;5087817;28;20330;-76
2021/03/22 05:05:56;;;;;;;30.75;15.32;;;;;;;-1.95;77.63;98218.41;5086230;28;20104;-76
2021/03/22 05:08:22;;;;;;;30.30;15.82;;;;;;;-1.88;77.46;98205.75;5094573;28;20506;-77
2021/03/22 05:10:49;;;;;;;29.58;15.32;;;;;;;-1.83;77.67;98211.25;5100902;28;20016;-77
2021/03/22 05:13:17;;;;;;;35.83;18.13;;;;;;;-1.74;77.78;98206.44;5093146;28;20020;-77
2021/03/22 05:15:42;;;;;;;38.67;16.83;;;;;;;-1.66;77.95;98216.91;5082281;28;20447;-79
2021/03/22 05:18:10;;;;;;;51.90;21.33;;;;;;;-1.61;77.92;98220.75;5090953;28;20044;-77
2021/03/22 05:20:41;;;;;;;47.70;21.45;;;;;;;-1.52;77.55;98227.50;5086668;28;20035;-77
2021/03/22 05:23:10;;;;;;;59.75;23.27;;;;;;;-1.48;77.53;98230.59;5075110;28;20036;-77
2021/03/22 05:25:36;;;;;;;76.97;24.65;;;;;;;-1.48;77.58;98238.66;5092746;28;20020;-78
2021/03/22 05:28:03;;;;;;;77.47;27.88;;;;;;;-1.48;77.51;98244.03;5083017;28;20070;-79
2021/03/22 05:30:29;;;;;;;60.33;26.52;;;;;;;-1.46;77.25;98242.75;5086386;28;20568;-77
2021/03/22 05:32:59;;;;;;;95.95;42.30;;;;;;;-1.43;77.28;98250.38;5083285;28;20115;-79
2021/03/22 05:35:25;;;;;;;61.15;26.15;;;;;;;-1.38;77.43;98252.38;5090442;28;20093;-79
2021/03/22 05:37:51;;;;;;;50.78;24.42;;;;;;;-1.33;77.16;98247.16;5078718;28;20032;-81
2021/03/22 05:40:30;;;;;;;138.40;70.70;;;;;;;-1.24;77.28;98253.91;5090425;28;20028;-78
2021/03/22 05:43:06;;;;;;;139.07;62.20;;;;;;;-1.18;77.62;98257.53;5086277;28;20032;-78
2021/03/22 05:45:58;;;;;;;90.10;34.08;;;;;;;-1.17;77.13;98255.69;5090137;28;20147;-77
2021/03/22 05:48:56;;;;;;;100.93;36.90;;;;;;;-1.05;77.33;98264.66;5089356;28;20048;-78
2021/03/22 05:51:33;;;;;;;42.95;18.98;;;;;;;-0.99;77.22;98258.34;5092467;28;20028;-78
2021/03/22 05:54:12;;;;;;;67.43;24.08;;;;;;;-0.92;77.37;98264.50;5092341;28;20024;-77
2021/03/22 05:56:43;;;;;;;114.65;36.60;;;;;;;-0.84;77.12;98263.38;5092454;28;20038;-76
2021/03/22 05:59:43;;;;;;;89.47;28.70;;;;;;;-0.79;77.11;98266.19;5091933;28;20476;-77
2021/03/22 06:02:21;;;;;;;82.10;26.95;;;;;;;-0.72;77.05;98267.97;5088446;28;20081;-78
2021/03/22 06:04:53;;;;;;;56.10;22.27;;;;;;;-0.69;76.97;98270.22;5091716;28;20115;-77
2021/03/22 06:07:24;;;;;;;63.15;24.10;;;;;;;-0.63;76.89;98272.84;5090511;28;20032;-77
2021/03/22 06:10:18;;;;;;;156.43;54.95;;;;;;;-0.59;77.00;98278.56;5091979;28;20640;-77
2021/03/22 06:13:03;;;;;;;77.40;30.25;;;;;;;-0.49;77.16;98283.41;5091880;28;20078;-77
2021/03/22 06:16:02;;;;;;;67.45;30.13;;;;;;;-0.43;77.08;98289.78;5091890;28;20027;-77
2021/03/22 06:18:34;;;;;;;59.53;27.85;;;;;;;-0.36;76.71;98294.00;5091927;28;20078;-78
2021/03/22 06:21:10;;;;;;;90.78;37.95;;;;;;;-0.28;76.82;98294.75;5091793;28;20073;-77
2021/03/22 06:23:38;;;;;;;101.00;40.20;;;;;;;-0.22;76.69;98297.34;5093502;28;20038;-77
2021/03/22 06:26:15;;;;;;;104.75;43.03;;;;;;;-0.10;76.42;98297.38;5094838;28;20024;-77
2021/03/22 06:28:43;;;;;;;60.85;31.73;;;;;;;-0.04;76.54;98295.63;5092167;28;20043;-76
2021/03/22 06:31:12;;;;;;;51.17;25.55;;;;;;;0.05;76.57;98302.31;5094833;28;20031;-77
2021/03/22 06:33:43;;;;;;;49.92;25.90;;;;;;;0.11;76.27;98297.88;5094650;28;20033;-77
2021/03/22 06:36:12;;;;;;;65.88;33.50;;;;;;;0.13;76.41;98301.97;5094683;28;20031;-78
2021/03/22 06:38:38;;;;;;;65.57;34.90;;;;;;;0.20;76.09;98315.38;5094553;28;20028;-77
2021/03/22 06:41:26;;;;;;;55.08;30.42;;;;;;;0.31;76.28;98318.31;5094512;28;20119;-77
2021/03/22 06:43:55;;;;;;;88.80;42.08;;;;;;;0.42;76.26;98315.63;5062922;28;20146;-77
2021/03/22 06:46:20;;;;;;;116.43;45.70;;;;;;;0.50;75.85;98319.03;5094556;28;20028;-76
2021/03/22 06:48:57;;;;;;;216.55;86.78;;;;;;;0.58;75.86;98318.69;5094862;28;20399;-78
2021/03/22 06:51:23;;;;;;;142.40;50.22;;;;;;;0.62;75.44;98319.88;5094923;28;20031;-75
2021/03/22 06:53:58;;;;;;;123.00;44.35;;;;;;;0.72;75.75;98322.81;5095429;28;20029;-76
2021/03/22 06:56:28;;;;;;;74.95;30.02;;;;;;;0.79;75.64;98316.47;5095137;28;20039;-76
2021/03/22 06:59:17;;;;;;;59.92;26.80;;;;;;;0.90;75.48;98329.09;5095033;28;20472;-77
2021/03/22 07:01:44;;;;;;;54.92;24.00;;;;;;;0.99;75.35;98332.28;5094141;28;20040;-77
2021/03/22 07:04:30;;;;;;;44.92;21.55;;;;;;;1.10;75.30;98327.94;5094195;28;20020;-77
2021/03/22 07:07:25;;;;;;;48.00;21.70;;;;;;;1.15;75.19;98336.13;5094799;28;20028;-77
2021/03/22 07:09:59;;;;;;;41.65;17.88;;;;;;;1.21;74.99;98334.34;5093206;28;20040;-77
2021/03/22 07:12:39;;;;;;;45.25;17.85;;;;;;;1.19;74.57;98338.13;5094935;28;20154;-78
2021/03/22 07:15:25;;;;;;;38.17;16.45;;;;;;;1.22;74.55;98338.69;5094896;28;20047;-78
2021/03/22 07:18:21;;;;;;;33.20;16.52;;;;;;;1.29;74.14;98347.50;5094804;28;20028;-77
2021/03/22 07:20:55;;;;;;;22.05;12.63;;;;;;;1.35;73.59;98349.25;5080564;28;20040;-76
2021/03/22 07:23:26;;;;;;;23.30;11.00;;;;;;;1.38;74.04;98348.78;5094853;28;20036;-76
2021/03/22 07:25:54;;;;;;;24.73;11.75;;;;;;;1.42;73.51;98347.25;5095035;28;20073;-76
2021/03/22 07:28:27;;;;;;;37.63;14.35;;;;;;;1.42;73.29;98343.72;5094600;28;20099;-77
2021/03/22 07:31:04;;;;;;;35.35;14.75;;;;;;;1.49;73.83;98350.63;5094480;28;20016;-76
2021/03/22 07:34:13;;;;;;;30.73;15.27;;;;;;;1.57;73.17;98351.31;5094000;28;20667;-75
2021/03/22 07:36:56;;;;;;;45.63;24.98;;;;;;;1.68;73.24;98353.16;5092933;28;20089;-76
2021/03/22 07:39:49;;;;;;;38.42;21.55;;;;;;;1.87;73.07;98359.19;5092998;28;20020;-76
2021/03/22 07:42:50;;;;;;;32.53;16.75;;;;;;;1.93;73.18;98357.38;5093969;28;20470;-76
2021/03/22 07:45:27;;;;;;;38.30;17.00;;;;;;;2.05;72.50;98354.63;5068965;28;20436;-75
2021/03/22 07:48:04;;;;;;;44.20;20.05;;;;;;;2.11;72.30;98361.78;5094063;28;20522;-75
2021/03/22 07:50:42;;;;;;;43.78;20.85;;;;;;;2.20;71.99;98352.19;5094157;28;20046;-75
2021/03/22 07:53:25;;;;;;;34.50;16.55;;;;;;;2.28;71.98;98361.78;5094329;28;20476;-74
2021/03/22 07:55:53;;;;;;;36.60;16.02;;;;;;;2.40;71.88;98367.16;5094265;28;20028;-75
2021/03/22 07:58:44;;;;;;;37.45;15.82;;;;;;;2.43;71.13;98363.97;5094085;28;20024;-75
2021/03/22 08:01:19;;;;;;;42.33;20.90;;;;;;;2.48;70.94;98363.22;5092788;28;20028;-74
2021/03/22 08:04:11;;;;;;;47.53;25.10;;;;;;;2.59;71.41;98365.03;5094033;28;20035;-75
2021/03/22 08:07:05;;;;;;;54.55;30.92;;;;;;;2.71;70.41;98364.09;5094063;28;20028;-75
2021/03/22 08:09:53;;;;;;;31.80;18.10;;;;;;;2.75;70.31;98360.66;5094064;28;20488;-74
2021/03/22 08:12:33;;;;;;;34.95;17.05;;;;;;;2.75;69.78;98367.97;5084972;28;20488;-74
2021/03/22 08:15:24;;;;;;;31.02;14.57;;;;;;;2.84;69.83;98371.91;5093739;28;20024;-75
2021/03/22 08:18:08;;;;;;;36.42;16.40;;;;;;;2.94;69.78;98368.50;5092513;28;20480;-76
2021/03/22 08:20:42;;;;;;;32.50;14.77;;;;;;;2.97;69.19;98368.03;5093569;28;20031;-76
2021/03/22 08:23:22;;;;;;;27.73;13.45;;;;;;;3.02;68.82;98364.59;5093376;28;20036;-75
2021/03/22 08:25:53;;;;;;;42.70;19.60;;;;;;;3.09;68.71;98371.47;5093406;28;20066;-76
2021/03/22 08:28:31;;;;;;;49.67;20.42;;;;;;;3.15;68.37;98366.91;5093095;28;20028;-75
2021/03/22 08:31:25;;;;;;;35.42;17.10;;;;;;;3.17;68.17;98369.41;5091986;28;20379;-75
2021/03/22 08:34:00;;;;;;;37.33;16.60;;;;;;;3.17;66.03;98378.31;5066662;28;20032;-75
2021/03/22 08:36:35;;;;;;;31.00;15.27;;;;;;;3.19;66.27;98381.63;5093026;28;20089;-76
2021/03/22 08:39:03;;;;;;;30.40;14.65;;;;;;;3.15;66.11;98374.25;5091664;28;20437;-76
2021/03/22 08:41:43;;;;;;;31.50;13.45;;;;;;;3.02;64.92;98384.34;5092937;28;20024;-76
2021/03/22 08:44:48;;;;;;;34.22;17.23;;;;;;;2.82;65.11;98380.28;5092815;28;20044;-76
2021/03/22 08:47:19;;;;;;;19.75;11.20;;;;;;;2.85;65.38;98389.00;5041772;28;20036;-76
2021/03/22 08:49:57;;;;;;;30.48;15.00;;;;;;;2.92;65.85;98389.63;5091715;28;20032;-75
2021/03/22 08:52:36;;;;;;;27.73;13.93;;;;;;;2.98;65.46;98392.16;5092894;28;20111;-77
2021/03/22 08:55:23;;;;;;;27.17;13.00;;;;;;;3.01;65.04;98401.69;5093006;28;20032;-77
2021/03/22 08:58:08;;;;;;;29.05;14.13;;;;;;;3.09;64.81;98395.84;5092767;28;20028;-76
2021/03/22 09:00:38;;;;;;;28.88;14.73;;;;;;;3.13;64.14;98397.00;5092852;28;20479;-77
2021/03/22 09:03:12;;;;;;;25.45;11.80;;;;;;;3.19;64.19;98406.00;5092507;28;20040;-76
2021/03/22 09:05:40;;;;;;;23.25;11.38;;;;;;;3.12;64.12;98403.47;5092590;28;20117;-76
2021/03/22 09:08:22;;;;;;;31.38;15.27;;;;;;;3.20;63.41;98404.13;5092173;28;20071;-77
2021/03/22 09:10:52;;;;;;;21.90;10.07;;;;;;;3.26;63.79;98408.56;5091093;28;20441;-76
2021/03/22 09:13:25;;;;;;;25.13;11.40;;;;;;;3.30;63.39;98408.88;5090665;28;20032;-76
2021/03/22 09:16:13;;;;;;;28.60;12.07;;;;;;;3.37;62.24;98407.59;5090714;28;20523;-76
2021/03/22 09:19:03;;;;;;;33.85;11.60;;;;;;;3.40;62.80;98409.00;5090611;28;20051;-76
2021/03/22 09:21:31;;;;;;;;;;;;;;;3.37;61.96;98409.50;5091953;28;20428;-75
2021/03/22 09:23:57;;;;;;;23.58;11.48;;;;;;;3.33;61.49;98408.38;5091914;28;19948;-75
2021/03/22 09:26:48;;;;;;;29.77;13.77;;;;;;;3.28;61.54;98418.06;5090917;28;20060;-76
2021/03/22 09:29:36;;;;;;;29.17;13.10;;;;;;;3.34;61.63;98404.59;5091934;28;20515;-76
2021/03/22 09:32:04;;;;;;;33.55;16.17;;;;;;;3.41;61.86;98411.47;5090863;28;20433;-76
2021/03/22 09:34:40;;;;;;;29.15;13.82;;;;;;;3.42;60.84;98406.88;5092101;28;20089;-77
2021/03/22 09:37:42;;;;;;;26.60;11.98;;;;;;;3.44;61.03;98410.16;5092278;28;20410;-76
2021/03/22 09:40:19;;;;;;;27.05;13.23;;;;;;;3.52;61.63;98403.47;5092216;28;20024;-76
2021/03/22 09:43:04;;;;;;;43.17;16.08;;;;;;;3.66;60.28;98412.06;5092305;28;20024;-78
2021/03/22 09:45:49;;;;;;;23.65;11.18;;;;;;;3.73;59.32;98415.41;5092063;28;20129;-77
2021/03/22 09:48:18;;;;;;;23.55;10.68;;;;;;;3.77;59.01;98410.28;5092113;28;20094;-78
2021/03/22 09:50:48;;;;;;;21.08;11.50;;;;;;;3.75;59.66;98407.00;5092062;28;20031;-78
2021/03/22 09:53:18;;;;;;;22.23;11.20;;;;;;;3.83;58.90;98409.28;5091854;28;20098;-78
2021/03/22 09:55:54;;;;;;;21.20;10.00;;;;;;;3.91;58.41;98411.53;5092199;28;20120;-78
2021/03/22 09:58:25;;;;;;;22.63;11.75;;;;;;;3.93;58.55;98411.28;5095692;28;20447;-77
2021/03/22 10:01:18;;;;;;;24.50;12.52;;;;;;;3.99;58.38;98407.56;5095896;28;20032;-77
2021/03/22 10:04:08;;;;;;;22.92;11.38;;;;;;;4.19;58.68;98408.84;5084795;28;20055;-77
2021/03/22 10:06:52;;;;;;;25.63;12.38;;;;;;;4.34;57.62;98411.72;5095902;28;20039;-76
2021/03/22 10:09:34;;;;;;;18.10;9.95;;;;;;;4.40;58.11;98413.41;5095786;28;20084;-77
2021/03/22 10:12:09;;;;;;;17.48;8.50;;;;;;;4.29;56.25;98414.38;5095826;28;20027;-77
2021/03/22 10:14:37;;;;;;;19.48;9.38;;;;;;;4.23;56.91;98412.72;5095789;28;20024;-77
2021/03/22 10:17:04;;;;;;;16.13;9.55;;;;;;;4.24;57.43;98401.56;5095680;28;20031;-76
2021/03/22 10:19:35;;;;;;;23.67;13.70;;;;;;;4.27;56.32;98400.25;5095588;28;20503;-75
2021/03/22 10:22:27;;;;;;;14.10;7.55;;;;;;;4.35;55.74;98399.78;5095684;28;20445;-77
2021/03/22 10:25:08;;;;;;;27.17;14.95;;;;;;;4.40;55.11;98399.81;5092195;28;20078;-76
2021/03/22 10:27:40;;;;;;;11.55;6.03;;;;;;;4.40;54.24;98394.41;5095559;28;20420;-77
2021/03/22 10:30:15;;;;;;;33.97;16.02;;;;;;;4.41;55.45;98401.47;5095582;28;20073;-76
2021/03/22 10:32:57;;;;;;;67.80;35.03;;;;;;;4.61;55.34;98394.59;5095575;28;20024;-76
2021/03/22 10:35:23;;;;;;;178.68;91.93;;;;;;;4.81;56.02;98395.81;5095369;28;20032;-77
2021/03/22 10:37:52;;;;;;;15.55;8.70;;;;;;;5.01;54.75;98395.16;5095368;28;20024;-76
2021/03/22 10:40:30;;;;;;;85.40;23.13;;;;;;;5.20;55.08;98390.09;5095355;28;20472;-77
2021/03/22 10:42:57;;;;;;;31.70;10.15;;;;;;;5.40;54.79;98394.84;5095265;28;20134;-75
2021/03/22 10:45:23;;;;;;;16.27;5.70;;;;;;;5.48;55.09;98393.53;5094980;28;20062;-76
2021/03/22 10:47:50;;;;;;;15.95;9.70;;;;;;;5.42;52.81;98398.13;5095135;28;20028;-76
2021/03/22 10:50:21;;;;;;;12.57;7.03;;;;;;;5.31;52.05;98393.69;5095012;28;20103;-77
2021/03/22 10:53:13;;;;;;;12.13;5.47;;;;;;;5.24;52.09;98391.22;5093734;28;20035;-76
2021/03/22 10:55:41;;;;;;;11.05;6.25;;;;;;;5.34;52.69;98396.72;5094869;28;20024;-76
2021/03/22 10:58:13;;;;;;;14.13;6.53;;;;;;;5.36;52.47;98386.41;5094863;28;20024;-78
2021/03/22 11:00:42;;;;;;;10.95;5.07;;;;;;;5.42;50.47;98389.97;5094736;28;20027;-77
2021/03/22 11:03:09;;;;;;;23.55;13.27;;;;;;;5.39;49.10;98386.97;5094560;28;20407;-76
2021/03/22 11:05:42;;;;;;;23.00;13.82;;;;;;;5.31;50.38;98380.94;5094934;28;20487;-76
2021/03/22 11:08:37;;;;;;;16.10;7.55;;;;;;;5.23;50.24;98384.16;5094101;28;20050;-77
2021/03/22 11:11:14;;;;;;;18.67;11.32;;;;;;;5.15;50.12;98382.75;5093210;28;20286;-76
2021/03/22 11:13:45;;;;;;;19.35;10.00;;;;;;;5.24;50.59;98379.53;5094744;28;20028;-76
2021/03/22 11:16:25;;;;;;;14.27;8.35;;;;;;;5.31;51.78;98380.94;5094551;28;20024;-77
2021/03/22 11:18:51;;;;;;;29.88;12.45;;;;;;;5.21;51.10;98380.88;5094650;28;20038;-77
2021/03/22 11:21:25;;;;;;;23.35;9.68;;;;;;;5.02;50.92;98384.03;5094691;28;20099;-76
2021/03/22 11:23:53;;;;;;;23.40;8.50;;;;;;;5.03;50.87;98393.84;5094429;28;20062;-77
2021/03/22 11:26:24;;;;;;;20.33;6.57;;;;;;;5.03;49.00;98393.84;5094507;28;20028;-77
2021/03/22 11:28:51;;;;;;;24.35;8.45;;;;;;;5.02;49.42;98388.63;5092600;28;20032;-76
2021/03/22 11:31:20;;;;;;;14.82;6.45;;;;;;;5.04;48.55;98386.47;5092877;28;20016;-76
2021/03/22 11:34:04;;;;;;;9.57;4.70;;;;;;;5.06;49.44;98387.88;5094074;28;20024;-76
2021/03/22 11:36:42;;;;;;;16.52;6.70;;;;;;;5.18;47.74;98389.56;5094162;28;20639;-77
2021/03/22 11:39:17;;;;;;;218.90;56.53;;;;;;;5.35;47.88;98392.94;5093824;28;20101;-76
2021/03/22 11:42:03;;;;;;;27.58;10.38;;;;;;;5.54;48.14;98395.19;5093763;28;20373;-76
2021/03/22 11:44:35;;;;;;;23.88;8.90;;;;;;;5.48;48.60;98399.00;5093639;28;20452;-76
2021/03/22 11:47:26;;;;;;;58.22;20.35;;;;;;;5.57;48.87;98399.28;5093655;28;20469;-74
2021/03/22 11:49:53;;;;;;;24.80;11.38;;;;;;;5.55;48.69;98404.19;5093648;28;20075;-75
2021/03/22 11:52:21;;;;;;;42.63;15.27;;;;;;;5.47;49.51;98392.72;5092607;28;20489;-75
2021/03/22 11:54:59;;;;;;;25.58;9.93;;;;;;;5.38;49.71;98397.00;5094010;28;20055;-76